sensor_id;sensor_type;location;lat;lon;timestamp;P1;P2;P0
65803;PMS5003;65658;63.740;34.316;2023-04-03T00:01:43;12;12;
65803;PMS5003;65658;63.740;34.316;2023-04-03T00:09:20;14;14;
65803;PMS5003;65658;63.740;34.316;2023-04-03T00:13:07;13;13;
65803;PMS5003;65658;63.740;34.316;2023-04-03T00:25:14;2;2;
65803;PMS5003;65658;63.740;34.316;2023-04-03T00:29:01;8;8;
65803;PMS5003;65658;63.740;34.316;2023-04-03T00:33:00;13;13;
65803;PMS5003;65658;63.740;34.316;2023-04-03T00:36:58;8;10;
65803;PMS5003;65658;63.740;34.316;2023-04-03T00:41:07;1;2;
65803;PMS5003;65658;63.740;34.316;2023-04-03T00:48:43;2;2;
65803;PMS5003;65658;63.740;34.316;2023-04-03T00:52:30;2;2;
65803;PMS5003;65658;63.740;34.316;2023-04-03T00:56:19;2;2;
65803;PMS5003;65658;63.740;34.316;2023-04-03T01:00:08;5;5;
65803;PMS5003;65658;63.740;34.316;2023-04-03T01:03:55;4;5;
65803;PMS5003;65658;63.740;34.316;2023-04-03T01:11:47;16;16;
65803;PMS5003;65658;63.740;34.316;2023-04-03T01:19:40;9;9;
65803;PMS5003;65658;63.740;34.316;2023-04-03T01:32:12;18;18;
65803;PMS5003;65658;63.740;34.316;2023-04-03T01:37:06;32;36;
65803;PMS5003;65658;63.740;34.316;2023-04-03T01:41:15;24;27;
65803;PMS5003;65658;63.740;34.316;2023-04-03T01:45:15;21;24;
65803;PMS5003;65658;63.740;34.316;2023-04-03T01:49:38;21;21;
65803;PMS5003;65658;63.740;34.316;2023-04-03T01:58:05;18;21;
65803;PMS5003;65658;63.740;34.316;2023-04-03T02:06:31;24;25;
65803;PMS5003;65658;63.740;34.316;2023-04-03T02:10:28;10;10;
65803;PMS5003;65658;63.740;34.316;2023-04-03T02:14:30;6;9;
65803;PMS5003;65658;63.740;34.316;2023-04-03T02:18:30;8;8;
65803;PMS5003;65658;63.740;34.316;2023-04-03T02:22:51;20;21;
65803;PMS5003;65658;63.740;34.316;2023-04-03T02:26:51;5;8;
65803;PMS5003;65658;63.740;34.316;2023-04-03T02:30:51;4;4;
65803;PMS5003;65658;63.740;34.316;2023-04-03T02:34:37;6;8;
65803;PMS5003;65658;63.740;34.316;2023-04-03T02:38:36;8;8;
65803;PMS5003;65658;63.740;34.316;2023-04-03T02:46:50;9;11;
65803;PMS5003;65658;63.740;34.316;2023-04-03T02:51:01;11;12;
65803;PMS5003;65658;63.740;34.316;2023-04-03T02:55:48;16;22;
65803;PMS5003;65658;63.740;34.316;2023-04-03T02:59:49;20;22;
65803;PMS5003;65658;63.740;34.316;2023-04-03T03:04:00;13;15;
65803;PMS5003;65658;63.740;34.316;2023-04-03T03:08:01;9;9;
65803;PMS5003;65658;63.740;34.316;2023-04-03T03:11:49;9;12;
65803;PMS5003;65658;63.740;34.316;2023-04-03T03:15:36;5;6;
65803;PMS5003;65658;63.740;34.316;2023-04-03T03:23:39;11;11;
65803;PMS5003;65658;63.740;34.316;2023-04-03T03:27:27;8;10;
65803;PMS5003;65658;63.740;34.316;2023-04-03T03:31:14;9;12;
65803;PMS5003;65658;63.740;34.316;2023-04-03T03:35:02;5;5;
65803;PMS5003;65658;63.740;34.316;2023-04-03T03:39:01;6;8;
65803;PMS5003;65658;63.740;34.316;2023-04-03T03:43:10;6;6;
65803;PMS5003;65658;63.740;34.316;2023-04-03T03:47:09;6;6;
65803;PMS5003;65658;63.740;34.316;2023-04-03T03:50:57;2;4;
65803;PMS5003;65658;63.740;34.316;2023-04-03T03:58:36;2;4;
65803;PMS5003;65658;63.740;34.316;2023-04-03T04:02:23;2;2;
65803;PMS5003;65658;63.740;34.316;2023-04-03T04:06:09;1;1;
65803;PMS5003;65658;63.740;34.316;2023-04-03T04:10:08;9;9;
65803;PMS5003;65658;63.740;34.316;2023-04-03T04:13:56;14;14;
65803;PMS5003;65658;63.740;34.316;2023-04-03T04:17:43;1;1;
65803;PMS5003;65658;63.740;34.316;2023-04-03T04:29:11;1;1;
65803;PMS5003;65658;63.740;34.316;2023-04-03T04:32:57;1;3;
65803;PMS5003;65658;63.740;34.316;2023-04-03T04:40:35;2;2;
65803;PMS5003;65658;63.740;34.316;2023-04-03T04:44:33;1;1;
65803;PMS5003;65658;63.740;34.316;2023-04-03T04:48:19;1;1;
65803;PMS5003;65658;63.740;34.316;2023-04-03T04:52:17;1;2;
65803;PMS5003;65658;63.740;34.316;2023-04-03T04:56:14;0;0;
65803;PMS5003;65658;63.740;34.316;2023-04-03T05:03:53;0;1;
65803;PMS5003;65658;63.740;34.316;2023-04-03T05:07:39;1;4;
65803;PMS5003;65658;63.740;34.316;2023-04-03T05:11:37;1;1;
65803;PMS5003;65658;63.740;34.316;2023-04-03T05:23:17;1;1;
65803;PMS5003;65658;63.740;34.316;2023-04-03T05:27:03;0;1;
65803;PMS5003;65658;63.740;34.316;2023-04-03T05:31:12;1;1;
65803;PMS5003;65658;63.740;34.316;2023-04-03T05:35:11;1;1;
65803;PMS5003;65658;63.740;34.316;2023-04-03T05:42:48;1;1;
65803;PMS5003;65658;63.740;34.316;2023-04-03T05:46:34;1;1;
65803;PMS5003;65658;63.740;34.316;2023-04-03T05:58:11;1;1;
65803;PMS5003;65658;63.740;34.316;2023-04-03T06:01:58;1;1;
65803;PMS5003;65658;63.740;34.316;2023-04-03T06:05:44;0;0;
65803;PMS5003;65658;63.740;34.316;2023-04-03T06:09:40;1;1;
65803;PMS5003;65658;63.740;34.316;2023-04-03T06:13:48;1;1;
65803;PMS5003;65658;63.740;34.316;2023-04-03T06:21:26;1;2;
65803;PMS5003;65658;63.740;34.316;2023-04-03T06:32:54;1;1;
65803;PMS5003;65658;63.740;34.316;2023-04-03T06:36:40;2;2;
65803;PMS5003;65658;63.740;34.316;2023-04-03T06:40:27;0;0;
65803;PMS5003;65658;63.740;34.316;2023-04-03T06:44:13;1;1;
65803;PMS5003;65658;63.740;34.316;2023-04-03T06:48:00;1;1;
65803;PMS5003;65658;63.740;34.316;2023-04-03T06:51:46;2;2;
65803;PMS5003;65658;63.740;34.316;2023-04-03T06:59:24;0;0;
65803;PMS5003;65658;63.740;34.316;2023-04-03T07:03:10;4;4;
65803;PMS5003;65658;63.740;34.316;2023-04-03T07:06:57;0;0;
65803;PMS5003;65658;63.740;34.316;2023-04-03T07:10:43;2;2;
65803;PMS5003;65658;63.740;34.316;2023-04-03T07:14:30;1;1;
65803;PMS5003;65658;63.740;34.316;2023-04-03T07:18:16;5;6;
65803;PMS5003;65658;63.740;34.316;2023-04-03T07:22:03;2;2;
65803;PMS5003;65658;63.740;34.316;2023-04-03T07:29:40;0;0;
65803;PMS5003;65658;63.740;34.316;2023-04-03T07:33:37;2;2;
65803;PMS5003;65658;63.740;34.316;2023-04-03T07:37:24;1;2;
65803;PMS5003;65658;63.740;34.316;2023-04-03T07:41:21;2;2;
65803;PMS5003;65658;63.740;34.316;2023-04-03T07:45:08;1;1;
65803;PMS5003;65658;63.740;34.316;2023-04-03T07:48:55;5;5;
65803;PMS5003;65658;63.740;34.316;2023-04-03T07:52:41;2;2;
65803;PMS5003;65658;63.740;34.316;2023-04-03T07:56:39;1;1;
65803;PMS5003;65658;63.740;34.316;2023-04-03T08:00:36;1;1;
65803;PMS5003;65658;63.740;34.316;2023-04-03T08:04:44;0;0;
65803;PMS5003;65658;63.740;34.316;2023-04-03T08:08:53;1;1;
65803;PMS5003;65658;63.740;34.316;2023-04-03T08:16:51;1;1;
65803;PMS5003;65658;63.740;34.316;2023-04-03T08:20:38;2;2;
65803;PMS5003;65658;63.740;34.316;2023-04-03T08:24:24;0;2;
65803;PMS5003;65658;63.740;34.316;2023-04-03T08:28:11;0;0;
65803;PMS5003;65658;63.740;34.316;2023-04-03T08:31:57;1;1;
65803;PMS5003;65658;63.740;34.316;2023-04-03T08:35:43;0;1;
65803;PMS5003;65658;63.740;34.316;2023-04-03T08:47:47;0;1;
65803;PMS5003;65658;63.740;34.316;2023-04-03T08:51:45;0;0;
65803;PMS5003;65658;63.740;34.316;2023-04-03T08:55:47;2;2;
65803;PMS5003;65658;63.740;34.316;2023-04-03T08:59:34;2;3;
65803;PMS5003;65658;63.740;34.316;2023-04-03T09:03:21;1;1;
65803;PMS5003;65658;63.740;34.316;2023-04-03T09:07:23;1;1;
65803;PMS5003;65658;63.740;34.316;2023-04-03T09:18:52;1;1;
65803;PMS5003;65658;63.740;34.316;2023-04-03T09:22:41;3;3;
65803;PMS5003;65658;63.740;34.316;2023-04-03T09:26:29;1;2;
65803;PMS5003;65658;63.740;34.316;2023-04-03T09:30:17;1;1;
65803;PMS5003;65658;63.740;34.316;2023-04-03T09:34:06;1;1;
65803;PMS5003;65658;63.740;34.316;2023-04-03T09:46:41;7;7;
65803;PMS5003;65658;63.740;34.316;2023-04-03T09:53:45;1;1;
65803;PMS5003;65658;63.740;34.316;2023-04-03T09:57:32;1;1;
65803;PMS5003;65658;63.740;34.316;2023-04-03T10:09:26;1;2;
65803;PMS5003;65658;63.740;34.316;2023-04-03T10:13:19;1;1;
65803;PMS5003;65658;63.740;34.316;2023-04-03T10:40:01;1;1;
65803;PMS5003;65658;63.740;34.316;2023-04-03T10:55:35;1;1;
65803;PMS5003;65658;63.740;34.316;2023-04-03T11:03:22;2;2;
65803;PMS5003;65658;63.740;34.316;2023-04-03T11:07:10;1;2;
65803;PMS5003;65658;63.740;34.316;2023-04-03T11:10:51;1;1;
65803;PMS5003;65658;63.740;34.316;2023-04-03T11:14:39;1;1;
65803;PMS5003;65658;63.740;34.316;2023-04-03T11:18:32;1;1;
65803;PMS5003;65658;63.740;34.316;2023-04-03T11:22:23;1;1;
65803;PMS5003;65658;63.740;34.316;2023-04-03T11:41:51;2;3;
65803;PMS5003;65658;63.740;34.316;2023-04-03T12:12:57;2;2;
65803;PMS5003;65658;63.740;34.316;2023-04-03T12:28:16;2;2;
65803;PMS5003;65658;63.740;34.316;2023-04-03T12:47:36;2;2;
65803;PMS5003;65658;63.740;34.316;2023-04-03T12:51:06;1;1;
65803;PMS5003;65658;63.740;34.316;2023-04-03T12:54:52;0;0;
65803;PMS5003;65658;63.740;34.316;2023-04-03T12:58:39;2;2;
65803;PMS5003;65658;63.740;34.316;2023-04-03T13:06:26;1;2;
65803;PMS5003;65658;63.740;34.316;2023-04-03T13:17:43;1;1;
65803;PMS5003;65658;63.740;34.316;2023-04-03T13:37:55;1;1;
65803;PMS5003;65658;63.740;34.316;2023-04-03T13:41:55;2;2;
65803;PMS5003;65658;63.740;34.316;2023-04-03T13:53:46;3;3;
65803;PMS5003;65658;63.740;34.316;2023-04-03T13:57:33;3;3;
65803;PMS5003;65658;63.740;34.316;2023-04-03T14:01:20;1;1;
65803;PMS5003;65658;63.740;34.316;2023-04-03T14:05:29;1;1;
65803;PMS5003;65658;63.740;34.316;2023-04-03T14:09:16;1;1;
65803;PMS5003;65658;63.740;34.316;2023-04-03T14:13:15;2;2;
65803;PMS5003;65658;63.740;34.316;2023-04-03T14:17:02;1;1;
65803;PMS5003;65658;63.740;34.316;2023-04-03T14:20:59;1;1;
65803;PMS5003;65658;63.740;34.316;2023-04-03T14:24:45;1;1;
65803;PMS5003;65658;63.740;34.316;2023-04-03T14:28:31;2;2;
65803;PMS5003;65658;63.740;34.316;2023-04-03T14:32:19;2;2;
65803;PMS5003;65658;63.740;34.316;2023-04-03T14:36:16;2;2;
65803;PMS5003;65658;63.740;34.316;2023-04-03T14:47:51;4;4;
65803;PMS5003;65658;63.740;34.316;2023-04-03T14:55:29;2;2;
65803;PMS5003;65658;63.740;34.316;2023-04-03T14:59:27;1;2;
65803;PMS5003;65658;63.740;34.316;2023-04-03T15:03:25;1;1;
65803;PMS5003;65658;63.740;34.316;2023-04-03T15:07:22;1;1;
65803;PMS5003;65658;63.740;34.316;2023-04-03T15:11:10;3;3;
65803;PMS5003;65658;63.740;34.316;2023-04-03T15:15:07;1;1;
65803;PMS5003;65658;63.740;34.316;2023-04-03T15:18:54;2;2;
65803;PMS5003;65658;63.740;34.316;2023-04-03T15:22:41;2;2;
65803;PMS5003;65658;63.740;34.316;2023-04-03T15:26:28;4;4;
65803;PMS5003;65658;63.740;34.316;2023-04-03T15:34:05;1;1;
65803;PMS5003;65658;63.740;34.316;2023-04-03T15:37:52;1;1;
65803;PMS5003;65658;63.740;34.316;2023-04-03T15:45:29;1;1;
65803;PMS5003;65658;63.740;34.316;2023-04-03T15:49:20;2;2;
65803;PMS5003;65658;63.740;34.316;2023-04-03T15:53:07;0;0;
65803;PMS5003;65658;63.740;34.316;2023-04-03T15:56:53;1;1;
65803;PMS5003;65658;63.740;34.316;2023-04-03T16:00:39;1;2;
65803;PMS5003;65658;63.740;34.316;2023-04-03T16:04:26;2;2;
65803;PMS5003;65658;63.740;34.316;2023-04-03T16:08:13;1;2;
65803;PMS5003;65658;63.740;34.316;2023-04-03T16:12:00;1;1;
65803;PMS5003;65658;63.740;34.316;2023-04-03T16:15:46;1;1;
65803;PMS5003;65658;63.740;34.316;2023-04-03T16:19:33;1;1;
65803;PMS5003;65658;63.740;34.316;2023-04-03T16:23:20;1;2;
65803;PMS5003;65658;63.740;34.316;2023-04-03T16:27:06;0;0;
65803;PMS5003;65658;63.740;34.316;2023-04-03T16:34:55;0;0;
65803;PMS5003;65658;63.740;34.316;2023-04-03T16:38:41;1;1;
65803;PMS5003;65658;63.740;34.316;2023-04-03T16:42:39;2;3;
65803;PMS5003;65658;63.740;34.316;2023-04-03T16:46:26;1;1;
65803;PMS5003;65658;63.740;34.316;2023-04-03T16:50:12;1;1;
65803;PMS5003;65658;63.740;34.316;2023-04-03T16:53:59;4;4;
65803;PMS5003;65658;63.740;34.316;2023-04-03T16:57:46;1;1;
65803;PMS5003;65658;63.740;34.316;2023-04-03T17:09:15;1;1;
65803;PMS5003;65658;63.740;34.316;2023-04-03T17:17:03;1;2;
65803;PMS5003;65658;63.740;34.316;2023-04-03T17:21:01;1;1;
65803;PMS5003;65658;63.740;34.316;2023-04-03T17:28:38;1;1;
65803;PMS5003;65658;63.740;34.316;2023-04-03T17:32:24;1;1;
65803;PMS5003;65658;63.740;34.316;2023-04-03T17:40:13;2;2;
65803;PMS5003;65658;63.740;34.316;2023-04-03T17:43:59;3;3;
65803;PMS5003;65658;63.740;34.316;2023-04-03T17:47:49;1;1;
65803;PMS5003;65658;63.740;34.316;2023-04-03T17:51:36;1;1;
65803;PMS5003;65658;63.740;34.316;2023-04-03T17:55:22;2;2;
65803;PMS5003;65658;63.740;34.316;2023-04-03T17:59:19;1;1;
65803;PMS5003;65658;63.740;34.316;2023-04-03T18:07:08;0;0;
65803;PMS5003;65658;63.740;34.316;2023-04-03T18:18:37;1;2;
65803;PMS5003;65658;63.740;34.316;2023-04-03T18:22:23;1;1;
65803;PMS5003;65658;63.740;34.316;2023-04-03T18:26:11;1;1;
65803;PMS5003;65658;63.740;34.316;2023-04-03T18:30:00;1;1;
65803;PMS5003;65658;63.740;34.316;2023-04-03T18:33:47;1;1;
65803;PMS5003;65658;63.740;34.316;2023-04-03T18:37:34;2;2;
65803;PMS5003;65658;63.740;34.316;2023-04-03T18:41:21;1;1;
65803;PMS5003;65658;63.740;34.316;2023-04-03T18:48:59;0;0;
65803;PMS5003;65658;63.740;34.316;2023-04-03T18:52:46;2;2;
65803;PMS5003;65658;63.740;34.316;2023-04-03T18:56:33;1;1;
65803;PMS5003;65658;63.740;34.316;2023-04-03T19:00:19;2;2;
65803;PMS5003;65658;63.740;34.316;2023-04-03T19:04:06;2;3;
65803;PMS5003;65658;63.740;34.316;2023-04-03T19:11:43;1;1;
65803;PMS5003;65658;63.740;34.316;2023-04-03T19:15:40;1;1;
65803;PMS5003;65658;63.740;34.316;2023-04-03T19:19:27;1;2;
65803;PMS5003;65658;63.740;34.316;2023-04-03T19:23:14;1;2;
65803;PMS5003;65658;63.740;34.316;2023-04-03T19:30:52;2;6;
65803;PMS5003;65658;63.740;34.316;2023-04-03T19:34:39;0;0;
65803;PMS5003;65658;63.740;34.316;2023-04-03T19:38:26;1;1;
65803;PMS5003;65658;63.740;34.316;2023-04-03T19:42:13;1;1;
65803;PMS5003;65658;63.740;34.316;2023-04-03T19:46:00;1;2;
65803;PMS5003;65658;63.740;34.316;2023-04-03T19:49:48;1;1;
65803;PMS5003;65658;63.740;34.316;2023-04-03T19:53:45;1;1;
65803;PMS5003;65658;63.740;34.316;2023-04-03T19:57:32;1;1;
65803;PMS5003;65658;63.740;34.316;2023-04-03T20:01:19;0;1;
65803;PMS5003;65658;63.740;34.316;2023-04-03T20:08:55;1;2;
65803;PMS5003;65658;63.740;34.316;2023-04-03T20:12:42;1;1;
65803;PMS5003;65658;63.740;34.316;2023-04-03T20:16:28;0;0;
65803;PMS5003;65658;63.740;34.316;2023-04-03T20:20:15;1;1;
65803;PMS5003;65658;63.740;34.316;2023-04-03T20:27:53;1;1;
65803;PMS5003;65658;63.740;34.316;2023-04-03T20:31:51;2;2;
65803;PMS5003;65658;63.740;34.316;2023-04-03T20:35:38;2;2;
65803;PMS5003;65658;63.740;34.316;2023-04-03T20:39:25;2;2;
65803;PMS5003;65658;63.740;34.316;2023-04-03T20:43:12;1;1;
65803;PMS5003;65658;63.740;34.316;2023-04-03T20:46:58;1;1;
65803;PMS5003;65658;63.740;34.316;2023-04-03T20:50:45;1;1;
65803;PMS5003;65658;63.740;34.316;2023-04-03T20:54:31;0;2;
65803;PMS5003;65658;63.740;34.316;2023-04-03T20:58:18;1;1;
65803;PMS5003;65658;63.740;34.316;2023-04-03T21:02:15;1;1;
65803;PMS5003;65658;63.740;34.316;2023-04-03T21:21:19;1;1;
65803;PMS5003;65658;63.740;34.316;2023-04-03T21:29:08;1;1;
65803;PMS5003;65658;63.740;34.316;2023-04-03T21:32:55;0;0;
65803;PMS5003;65658;63.740;34.316;2023-04-03T21:44:24;1;1;
65803;PMS5003;65658;63.740;34.316;2023-04-03T21:52:04;0;0;
65803;PMS5003;65658;63.740;34.316;2023-04-03T21:55:53;0;0;
65803;PMS5003;65658;63.740;34.316;2023-04-03T21:59:40;1;1;
65803;PMS5003;65658;63.740;34.316;2023-04-03T22:07:19;1;1;
65803;PMS5003;65658;63.740;34.316;2023-04-03T22:11:09;1;1;
65803;PMS5003;65658;63.740;34.316;2023-04-03T22:14:56;1;2;
65803;PMS5003;65658;63.740;34.316;2023-04-03T22:18:43;0;0;
65803;PMS5003;65658;63.740;34.316;2023-04-03T22:22:29;1;1;
65803;PMS5003;65658;63.740;34.316;2023-04-03T22:26:16;0;1;
65803;PMS5003;65658;63.740;34.316;2023-04-03T22:30:13;1;1;
65803;PMS5003;65658;63.740;34.316;2023-04-03T22:37:51;0;0;
65803;PMS5003;65658;63.740;34.316;2023-04-03T22:41:37;1;1;
65803;PMS5003;65658;63.740;34.316;2023-04-03T22:45:34;1;1;
65803;PMS5003;65658;63.740;34.316;2023-04-03T22:53:12;1;1;
65803;PMS5003;65658;63.740;34.316;2023-04-03T22:56:59;2;2;
65803;PMS5003;65658;63.740;34.316;2023-04-03T23:04:48;1;1;
65803;PMS5003;65658;63.740;34.316;2023-04-03T23:12:25;1;1;
65803;PMS5003;65658;63.740;34.316;2023-04-03T23:16:12;1;1;
65803;PMS5003;65658;63.740;34.316;2023-04-03T23:19:58;1;2;
65803;PMS5003;65658;63.740;34.316;2023-04-03T23:23:45;1;3;
65803;PMS5003;65658;63.740;34.316;2023-04-03T23:27:48;1;1;
65803;PMS5003;65658;63.740;34.316;2023-04-03T23:31:33;0;0;
65803;PMS5003;65658;63.740;34.316;2023-04-03T23:35:20;2;2;
65803;PMS5003;65658;63.740;34.316;2023-04-03T23:39:06;1;1;
65803;PMS5003;65658;63.740;34.316;2023-04-03T23:42:53;1;1;
65803;PMS5003;65658;63.740;34.316;2023-04-03T23:46:41;1;1;
65803;PMS5003;65658;63.740;34.316;2023-04-03T23:54:19;0;0;
65803;PMS5003;65658;63.740;34.316;2023-04-03T23:58:06;2;2;
